Timeline UpdatesTrip UpdatesNews PostsPvt Posts♥♥Travel TipsAdmin PostsConv PostsFollowed PostsChat RequestsBlog PostsPNR Posts

Disclaimer
Search
 
 
Thu Dec 18, 2014 17:01:15 ISTHomeTrainsΣChainsAtlasPNRForumGalleryNewsFAQTripsMembersLoginFeedback
No Recent News for this Train
Other Trains in the News **new
Latest...
..
Mon Feb 24, 2014 (09:24PM)
⇐ Return Journey: Train# 13201

13202/Mumbai LTT - Rajendra Nagar Patna Express

Time-Table HAS CHANGED.
Sep 01 2014 (3:52PM)
Change Departure Station:
Change Arrival Station:
Post a Train Travel TipPost a Train Travel Tip **new
Post a Comment/Question/Picture/VideoPost a Comment/Question/Picture/Video
Inaugural Run
Thu Jan 01, 1998
Pantry/Catering
✓ Pantry Car Avbl
✓ Catering Avbl
RSA - Rake Sharing
NO RSA
Rake/Coach Composition
LOCO-SLR-GS-GS-A1-AB1-B2-B1-PC-S12-S11-S10-S9-S8-S7-S6-S5-S4-S3-S2-S1-GS-GS-GS-SLR
Loco
LTT-ET:-ET/BSL WAP-4 ET-COI :-ET WDP 4B COI-RJPB :-MGS WAP 4/CNB WAG 7
News    PNR    Forum    Time-Table    Availability    Fare Chart    Map    Arr/Dep History    Trips    Gallery    ΣChains    X/O    Timeline    
Travel Time: 35h 40m    61 halts    Distance: 1695 km    Avg Speed: 47 km/hr
Type: Mail/Express
Zone: ECR/East Central
Departs @ 22:15 (Avg 1m late)
Platform# 5
SMTWTFS
Mumbai Lokmanya Tilak Terminus/LTT 
Arrives @ 09:55 +2 nights (Avg 1h 56m late)
Platform# ???
SMTWTFS
Rajendra Nagar Bihar/RJPB 

61 halts. 242 intermediate Stations between Mumbai Lokmanya Tilak Terminus and Rajendra Nagar Bihar

Show ALL intermediate Stations  Show Old Time-Table

#TrkCodeStation NameX/OArrivesAvgDepartsAvgHaltPFDay#KmSpeedElevZoneAddress
1/==/LTTMumbai Lokmanya Tilak Terminus (5)»  -22:15+1510.0477mCRMumbai - 400089, Maharashtra
2/==/KYNKalyan Junction (8)  22:55 23:02+1623:00 23:05+215 3m4136.74910mCRKalyan 421301, Maharashtra
3/==/IGPIgatpuri (4)X  00:45+1800:50+225m--2118.563589mCRIgatpuri 422403, Maharashtra
4/==/DVLDevlali (3)X  01:33+2401:35+282m12163.434561mCRDist. Nashik 422401, Maharashtra
5/==/NKNasik Road (3)X  01:45+2401:50+265m22169.167563mCRNashik 422101, Maharashtra
6/==/NRNiphad (3)X  02:18+2502:20+252m--2200.678550mCRNashik, Maharashtra
7/==/LSLasalgaon (3)X  02:33+2502:35+252m--2217.474592mCRLasalgaon, Maharashtra
8/==/MMRManmad Junction (6)  03:00 02:55+2503:05 03:00+255m22241.985580mCRManmad 423104, Maharashtra
9/==/NGNNandgaon (3)X  03:22 03:18+3003:25 03:20+303 2m--2267.390476mCRNandgaon, Maharashtra
10/==/CSNChalisgaon Junction (3)X  03:53 03:48+3103:55 03:50+312m--2309.496352mCRChalisgaon 424101, Maharashtra
11/==/JLJalgaon Junction (4)X  04:53 04:48+4004:55 04:50+402m32402.058213mCRJalgaon 425001, Maharashtra
12/==/BSLBhusaval Junction (8)X  05:20 05:15+4205:30 05:25+4710m52426.173208mCRBhusaval 425201, Maharashtra
13/==/RVRaver (2)  06:03 05:53+4906:05 05:55+502m--2460.481242mCRJalgaon, Maharashtra
14/==/BAUBurhanpur (2)  06:23 06:10+4906:25 06:12+492m22480.675269mCRBurhanpur, Madhya Pradesh
15/==/NPNRNepanagar (2)O  06:53 06:33+5106:55 06:35+512m--2506.830289mCRState Highway 27, Madhya Pradesh
16/==/KNWKhandwa Junction (5)XO  08:10 08:00+708:15 08:05+95m--2549.541310mCRKhandwa, Madhya Pradesh
17/==/TLVTalvadiya (2)  08:28+708:30+132m--2565.299308mWCRKhandwa, Madhya Pradesh
18/==/CAERChhanera (2)X  08:48+2008:50+242m--2594.980283mWCRChhanera, Madhya Pradesh
19/==/KKNKhirkiya (2)X  09:13+2609:15+292m22625.690281mWCRSH 15, Madhya Pradesh
20/==/HDHarda (3)X  09:36+3309:38+332m--2657.171289mWCRHarda, Madhya Pradesh
21/==/TBNTimarni (2)XO  09:48 09:50+3509:50 09:52+352m--2671.253308mWCRTimarni, Madhya Pradesh
22/==/BPFBanapura (2)  10:24+2510:26+252m--2699.431314mWCRBanapura, Madhya Pradesh
23/==/ETItarsi Junction (7)X11:30+211:40+1310m--2732.972329mWCRItarsi 461111, Madhya Pradesh
24|-=|BGTABagratawa (2)XO  12:02+4112:04+412m22759.336338mWCRBagra Tawa, Madhya Pradesh
25|==|SGPSohagpur (2)  12:43+2112:45+232m22782.462340mWCRSohagpur, Madhya Pradesh
26|==|PPIPipariya (3)  13:02+2513:04+252m12800.183339mWCRPiparia, Madhya Pradesh
27|==|BKHBankhedi (2)X  13:18+2813:20+282m22819.574351mWCRBankheri, Madhya Pradesh
28|==|SCKRSalichauka Road (2)X  13:31 13:33+3213:33 13:35+322m--2835.693355mWCRGadarwara, Madhya Pradesh
29|==|GARGadarwara (2)XO  13:44+3613:46+372m12849.586353mWCRNarsinghpur, Madhya Pradesh
30|==|KYKareli (2)  14:06+4214:08+442m12878.048365mWCRKareli, Madhya Pradesh
31|==|NUNarsinghpur (2)X  14:28+4014:30+402m12893.878365mWCRNarsimhapur, Madhya Pradesh
32|==|SRIDShridham (3)  14:54+4214:56+412m22925.078373mWCRShridham, Madhya Pradesh
33|==|MMLMadan Mahal (3)  15:34+4315:36+442m22974.610428mWCRJabalpur, Madhya Pradesh
34|==|JBPJabalpur Junction (4)X  15:45 15:55+3215:55 16:05+3510m32977.983416mWCRJabalpur, Madhya Pradesh
35|==|SHRSihora Road (2)X  16:27 16:33+4916:29 16:35+502m--21016.563388mWCRJabalpur, Madhya Pradesh
36|==%KTEKatni Junction (6)X  17:10 17:25+4617:15 17:30+475m--21068.7130387mWCRKatni, Madhya Pradesh
37%==%JKEJukehi (3)  17:30 17:38+5717:32 17:40+572m--21086.198402mWCRJukehi, Madhya Pradesh
38%==%MYRMaihar (3)  18:03 18:08+1:0118:05 18:10+1:012m--21131.743353mWCRMaihar Railway Station, Madhya Pradesh
39%==%STASatna Junction (3)X  18:50 19:00+4119:00 19:10+3910m221167.193322mWCRSatna, Madhya Pradesh
40%==%JTWJaitwar (2)  19:17 19:23+4719:19 19:25+492m--21187.273308mWCRJaitwar, Madhya Pradesh
41%==%MJGMajhagawanX  19:42+5119:44+512m--21207.927343mWCRMajhgawa, Madhya Pradesh
42%==%MKPManikpur Junction (4)X  21:15 21:05+2421:20 21:10+255m--21244.875250mNCRManikpur, Uttar Pradesh
43%==%DBRDabhaura (2)X  21:38 21:28+2521:40 21:30+252m--21267.372199mNCRDabhaura, Uttar Pradesh
44%==%SRJShankargarh (3)  22:07 21:57+2322:09 21:59+232m--21299.832132mNCRShankargarh, Uttar Pradesh
45|==|COIChheoki Junction (3)O  23:10+2723:30+1:2720m--21337.12596mNCRDist.-Allahabad, Uttar Pradesh
46/==/MNFManda RoadX  01:20+4401:22+492m--31382.77593mNCRNH 76, Uttar Pradesh
47/==/BDLVindhyachal (3)X  01:44+1:0401:46+1:072m231410.22688mNCRMirzapur, Uttar Pradesh
48/==/MZPMirzapur (3)X  02:03+5902:05+1:032m--31417.56388mNCRMirzapur, Uttar Pradesh
49/==/CARChunar Junction (5)XO  02:38 02:35+1:2002:40+1:182 5m331448.83085mNCRChunar Junction, Uttar Pradesh
50/--/ARWAhraura Road (4)XO  03:16+1:0703:18+1:132m--31466.82285mNCRDist. Mirzapur - 231305, Uttar Pradesh
51/==/MGSMughal Sarai Junction (8)X  03:55+1:1604:10+1:1315m--31480.66583mECRDistt: Chandauli Pin 232101, Uttar Pradesh
52/==/ZNAZamania (2)  04:46 04:51+1:2704:48 04:53+1:302m--31524.86777mECRGhazipur, Uttar Pradesh
53/==/DLNDildarnagar Junction (2)X  05:01 05:05+1:2905:03 05:07+1:332m--31538.38072mECRDildarnagar, Uttar Pradesh
54/==/GMRGahmar (2)  05:12 05:19+1:4005:14 05:20+1:442 1m--31554.36968mECRDistt: Ghazipur, Uttar Pradesh
55/==/CSAChausa (2)  05:21 05:28+1:5005:23 05:29+1:552 1m--31563.56068mECRState Highway 14, Bihar
56/==/BXRBuxar (3)X  05:35 05:40+1:5205:37 05:42+1:552m--31574.53367mECRBuxar, Bihar
57/==/BEABihiya (3)  07:07+1:2407:09+1:282m--31621.62967mECRBehea, Bihar
58/==/ARAAra Junction (3)  07:53+1:1307:55+1:152m--31643.03463mECRDistt: Bhojpur Ph 06182-233411, Bihar
59/==/BTABihta (2)X  08:34+1:0108:36+1:062m--31665.24262mECRDistt: Patna, Bihar
60/==/SDESadisopur (2)  08:42-08:44-2m--31669.44164mECRSadisopur, Bihar
61/==/DNRDanapur (5)X09:03+1:1509:05+1:282m--31682.52358mECRKhagaul, Bihar
62/==/PNBEPatna Junction (10)  09:30+1:3509:40+1:4210m331691.91057mECRPatna 800001, Bihar
63/==/RJPBRajendra Nagar Bihar (4)•  09:55+1:56---31694.5-55mECRPatna 800001, Bihar
Scroll to Top
Scroll to Bottom


Go to Mobile site